createdAt,value
2023-05-12T00:01:23.469Z,99.90
2023-05-12T00:03:53.565Z,99.90
2023-05-12T00:06:21.610Z,99.90
2023-05-12T00:08:48.824Z,99.90
2023-05-12T00:11:15.904Z,99.90
2023-05-12T00:13:43.046Z,99.90
2023-05-12T00:16:10.462Z,99.90
2023-05-12T00:18:37.724Z,99.90
2023-05-12T00:21:04.885Z,99.90
2023-05-12T00:23:31.989Z,99.90
2023-05-12T00:25:58.909Z,99.90
2023-05-12T00:28:25.991Z,99.90
2023-05-12T00:30:53.657Z,99.90
2023-05-12T00:33:21.344Z,99.90
2023-05-12T00:35:48.247Z,99.90
2023-05-12T00:38:15.510Z,99.90
2023-05-12T00:40:42.468Z,99.90
2023-05-12T00:43:09.507Z,99.90
2023-05-12T00:45:37.275Z,99.90
2023-05-12T00:48:06.328Z,99.90
2023-05-12T00:50:33.353Z,99.90
2023-05-12T00:53:01.628Z,99.90
2023-05-12T00:55:30.596Z,99.90
2023-05-12T00:57:57.684Z,99.90
2023-05-12T01:00:25.023Z,99.90
2023-05-12T01:02:52.138Z,99.90
2023-05-12T01:05:19.254Z,99.90
2023-05-12T01:07:47.991Z,99.90
2023-05-12T01:10:22.162Z,99.90
2023-05-12T01:12:49.560Z,99.90
2023-05-12T01:15:18.034Z,99.90
2023-05-12T01:17:53.436Z,99.90
2023-05-12T01:20:23.254Z,99.90
2023-05-12T01:22:50.542Z,99.90
2023-05-12T01:25:19.703Z,99.90
2023-05-12T01:27:47.012Z,99.90
2023-05-12T01:34:01.808Z,99.90
2023-05-12T01:40:10.133Z,99.90
2023-05-12T01:42:40.308Z,99.90
2023-05-12T01:45:08.336Z,99.90
2023-05-12T01:47:35.645Z,99.90
2023-05-12T01:50:03.338Z,99.90
2023-05-12T01:52:30.476Z,99.90
2023-05-12T01:54:57.652Z,99.90
2023-05-12T01:57:24.584Z,99.90
2023-05-12T01:59:51.645Z,99.90
2023-05-12T02:02:18.672Z,99.90
2023-05-12T02:04:45.777Z,99.90
2023-05-12T02:07:12.662Z,99.90
2023-05-12T02:09:39.556Z,99.90
2023-05-12T02:12:06.997Z,99.90
2023-05-12T02:14:34.160Z,99.90
2023-05-12T02:17:01.234Z,99.90
2023-05-12T02:19:28.329Z,99.90
2023-05-12T02:21:55.282Z,99.90
2023-05-12T02:24:22.456Z,99.90
2023-05-12T02:26:49.184Z,99.90
2023-05-12T02:29:16.225Z,99.90
2023-05-12T02:31:43.261Z,99.90
2023-05-12T02:34:10.349Z,99.90
2023-05-12T02:36:37.925Z,99.90
2023-05-12T02:39:05.336Z,99.90
2023-05-12T02:41:32.268Z,99.90
2023-05-12T02:43:59.058Z,99.90
2023-05-12T02:46:26.260Z,99.90
2023-05-12T02:48:53.579Z,99.90
2023-05-12T02:51:20.598Z,99.90
2023-05-12T02:53:47.718Z,99.90
2023-05-12T02:56:14.651Z,99.90
2023-05-12T02:58:42.039Z,99.90
2023-05-12T03:01:11.181Z,99.90
2023-05-12T03:03:39.121Z,99.90
2023-05-12T03:06:07.015Z,99.90
2023-05-12T03:08:34.010Z,99.90
2023-05-12T03:11:01.249Z,99.90
2023-05-12T03:13:28.156Z,99.90
2023-05-12T03:15:55.961Z,99.90
2023-05-12T03:18:23.008Z,99.90
2023-05-12T03:20:49.957Z,99.90
2023-05-12T03:23:17.110Z,99.90
2023-05-12T03:25:44.089Z,99.90
2023-05-12T03:28:11.443Z,99.90
2023-05-12T03:30:38.561Z,99.90
2023-05-12T03:33:05.690Z,99.90
2023-05-12T03:35:32.731Z,99.90
2023-05-12T03:38:00.053Z,99.90
2023-05-12T03:40:27.105Z,99.90
2023-05-12T03:42:54.135Z,99.90
2023-05-12T03:45:21.582Z,99.90
2023-05-12T03:47:48.693Z,99.90
2023-05-12T03:50:15.900Z,99.90
2023-05-12T03:52:42.921Z,99.90
2023-05-12T03:55:10.527Z,99.90
2023-05-12T03:57:38.252Z,99.90
2023-05-12T04:00:10.057Z,99.90
2023-05-12T04:02:38.387Z,99.90
2023-05-12T04:05:08.364Z,99.90
2023-05-12T04:07:35.814Z,99.90
2023-05-12T04:10:03.141Z,99.90
2023-05-12T04:12:30.487Z,99.90
2023-05-12T04:14:58.100Z,99.90
2023-05-12T04:17:25.587Z,99.90
2023-05-12T04:19:54.026Z,99.90
2023-05-12T04:22:27.559Z,99.90
2023-05-12T04:24:54.575Z,99.90
2023-05-12T04:27:21.410Z,99.90
2023-05-12T04:29:49.673Z,99.90
2023-05-12T04:32:20.128Z,99.90
2023-05-12T04:34:48.089Z,99.90
2023-05-12T04:37:14.955Z,99.90
2023-05-12T04:39:41.959Z,99.90
2023-05-12T04:42:10.017Z,99.90
2023-05-12T04:44:41.228Z,99.90
2023-05-12T04:47:08.249Z,99.90
2023-05-12T04:49:35.356Z,99.90
2023-05-12T04:52:02.577Z,99.90
2023-05-12T04:54:33.933Z,99.90
2023-05-12T04:57:01.600Z,99.90
2023-05-12T04:59:29.542Z,99.90
2023-05-12T05:01:56.410Z,99.90
2023-05-12T05:04:23.421Z,99.90
2023-05-12T05:06:50.418Z,99.90
2023-05-12T05:09:17.438Z,99.90
2023-05-12T05:11:44.388Z,99.90
2023-05-12T05:14:11.839Z,99.90
2023-05-12T05:16:39.449Z,99.90
2023-05-12T05:19:09.399Z,99.90
2023-05-12T05:21:46.506Z,99.90
2023-05-12T05:24:13.465Z,99.90
2023-05-12T05:26:40.776Z,99.90
2023-05-12T05:29:08.765Z,99.90
2023-05-12T05:31:39.439Z,99.90
2023-05-12T05:34:06.582Z,99.90
2023-05-12T05:36:34.024Z,99.90
2023-05-12T05:39:01.031Z,99.90
2023-05-12T05:41:33.249Z,99.90
2023-05-12T05:44:00.310Z,99.90
2023-05-12T05:46:27.265Z,99.90
2023-05-12T05:48:54.287Z,99.90
2023-05-12T05:51:21.360Z,99.90
2023-05-12T05:53:48.373Z,99.90
2023-05-12T05:56:15.623Z,99.90
2023-05-12T05:58:42.784Z,99.90
2023-05-12T06:01:10.091Z,99.90
2023-05-12T06:03:40.685Z,99.90
2023-05-12T06:06:08.115Z,99.90
2023-05-12T06:08:37.566Z,99.90
2023-05-12T06:11:07.933Z,99.90
2023-05-12T06:13:34.900Z,99.90
2023-05-12T06:16:02.136Z,99.90
2023-05-12T06:18:29.199Z,99.90
2023-05-12T06:21:00.411Z,99.90
2023-05-12T06:23:27.611Z,99.90
2023-05-12T06:25:54.679Z,99.90
2023-05-12T06:28:21.710Z,99.90
2023-05-12T06:30:55.058Z,99.90
2023-05-12T06:33:23.809Z,99.90
2023-05-12T06:35:50.893Z,99.90
2023-05-12T06:38:17.999Z,99.90
2023-05-12T06:40:45.007Z,99.90
2023-05-12T06:43:12.957Z,99.90
2023-05-12T06:45:39.961Z,99.90
2023-05-12T06:48:07.302Z,99.90
2023-05-12T06:50:34.375Z,99.90
2023-05-12T06:53:01.373Z,99.90
2023-05-12T06:55:28.574Z,99.90
2023-05-12T06:57:56.110Z,99.90
2023-05-12T07:00:24.205Z,99.90
2023-05-12T07:02:51.721Z,99.90
2023-05-12T07:05:19.143Z,99.90
2023-05-12T07:07:46.628Z,99.90
2023-05-12T07:10:13.803Z,99.90
2023-05-12T07:12:40.936Z,99.90
2023-05-12T07:15:08.813Z,99.90
2023-05-12T07:17:36.155Z,99.90
2023-05-12T07:20:04.907Z,99.90
2023-05-12T07:22:32.866Z,99.90
2023-05-12T07:25:04.223Z,99.90
2023-05-12T07:27:31.791Z,99.90
2023-05-12T07:29:58.734Z,99.90
2023-05-12T07:32:26.306Z,99.90
2023-05-12T07:35:15.276Z,99.90
2023-05-12T07:37:53.194Z,99.90
2023-05-12T07:40:21.871Z,99.90
2023-05-12T07:42:53.521Z,99.90
2023-05-12T07:45:39.333Z,99.90
2023-05-12T08:33:20.811Z,99.90
2023-05-12T08:35:47.762Z,99.90
2023-05-12T08:38:15.134Z,99.90
2023-05-12T08:41:07.924Z,99.90
2023-05-12T08:43:53.244Z,99.90
2023-05-12T08:46:21.189Z,99.90
2023-05-12T08:48:52.045Z,99.90
2023-05-12T08:51:19.844Z,99.90
2023-05-12T08:53:49.118Z,99.90
2023-05-12T08:58:50.331Z,99.90
2023-05-12T09:01:18.270Z,99.90
2023-05-12T09:03:45.557Z,99.90
2023-05-12T09:06:19.382Z,99.90
2023-05-12T09:08:46.339Z,99.90
2023-05-12T09:11:14.428Z,99.90
2023-05-12T09:14:04.747Z,99.90
2023-05-12T09:16:46.047Z,99.90
2023-05-12T09:19:13.155Z,99.90
2023-05-12T09:21:44.642Z,99.90
2023-05-12T09:24:15.320Z,99.90
2023-05-12T09:26:51.834Z,99.90
2023-05-12T09:29:30.779Z,99.90
2023-05-12T09:32:14.349Z,99.90
2023-05-12T09:34:43.288Z,99.90
2023-05-12T09:37:10.603Z,99.90
2023-05-12T09:39:44.899Z,99.90
2023-05-12T09:42:13.588Z,99.90
2023-05-12T09:44:41.305Z,99.90
2023-05-12T09:47:12.854Z,99.90
2023-05-12T09:49:46.615Z,99.90
2023-05-12T09:52:13.716Z,99.90
2023-05-12T09:54:42.159Z,99.90
2023-05-12T09:57:17.500Z,99.90
2023-05-12T09:59:45.819Z,99.90
2023-05-12T10:02:19.391Z,99.90
2023-05-12T10:05:08.202Z,99.90
2023-05-12T10:07:36.657Z,99.90
2023-05-12T10:10:09.717Z,99.90
2023-05-12T10:12:36.985Z,99.90
2023-05-12T10:15:04.880Z,99.90
2023-05-12T10:17:32.334Z,99.90
2023-05-12T10:20:00.134Z,99.90
2023-05-12T10:22:31.201Z,99.90
2023-05-12T10:24:58.464Z,99.90
2023-05-12T10:27:25.902Z,99.90
2023-05-12T10:29:55.068Z,99.90
2023-05-12T10:32:27.390Z,99.90
2023-05-12T10:34:55.045Z,99.90
2023-05-12T10:37:23.503Z,99.90
2023-05-12T10:39:52.377Z,99.90
2023-05-12T10:42:25.690Z,99.90
2023-05-12T10:44:54.428Z,99.90
2023-05-12T10:47:26.868Z,99.90
2023-05-12T10:50:00.552Z,99.90
2023-05-12T10:52:27.601Z,99.90
2023-05-12T10:55:01.660Z,99.90
2023-05-12T10:57:31.090Z,99.90
2023-05-12T11:00:00.334Z,99.90
2023-05-12T11:02:34.483Z,99.90
2023-05-12T11:05:18.557Z,99.90
2023-05-12T11:07:51.228Z,99.90
2023-05-12T11:10:22.098Z,99.90
2023-05-12T11:12:50.017Z,99.90
2023-05-12T11:15:18.249Z,99.90
2023-05-12T11:17:46.533Z,99.90
2023-05-12T11:20:38.196Z,99.90
2023-05-12T11:23:09.019Z,99.90
2023-05-12T11:26:24.401Z,99.90
2023-05-12T11:28:51.654Z,99.90
2023-05-12T11:31:20.432Z,99.90
2023-05-12T11:33:50.447Z,99.90
2023-05-12T11:36:21.776Z,99.90
2023-05-12T11:38:50.490Z,99.90
2023-05-12T11:41:27.190Z,99.90
2023-05-12T11:43:54.396Z,99.90
2023-05-12T11:46:31.260Z,99.90
2023-05-12T11:48:59.551Z,99.90
2023-05-12T11:51:27.626Z,99.90
2023-05-12T11:53:59.284Z,99.90
2023-05-12T11:56:26.715Z,99.90
2023-05-12T11:59:06.250Z,99.90
2023-05-12T12:01:46.276Z,99.90
2023-05-12T12:04:13.441Z,99.90
2023-05-12T12:06:49.509Z,99.90
2023-05-12T12:09:16.757Z,99.90
2023-05-12T12:11:43.620Z,99.90
2023-05-12T12:14:10.653Z,99.90
2023-05-12T12:16:38.397Z,99.90
2023-05-12T12:19:10.280Z,99.90
2023-05-12T12:21:37.324Z,99.90
2023-05-12T12:24:05.542Z,99.90
2023-05-12T12:26:32.703Z,99.90
2023-05-12T12:29:00.154Z,99.90
2023-05-12T12:31:30.710Z,99.90
2023-05-12T12:33:58.050Z,99.90
2023-05-12T12:36:25.252Z,99.90
2023-05-12T12:38:52.411Z,99.90
2023-05-12T12:41:19.264Z,99.90
2023-05-12T12:43:53.079Z,99.90
2023-05-12T12:46:20.385Z,99.90
2023-05-12T12:48:48.003Z,99.90
2023-05-12T12:51:17.871Z,99.90
2023-05-12T12:53:47.601Z,99.90
2023-05-12T12:56:15.426Z,99.90
2023-05-12T12:58:43.014Z,99.90
2023-05-12T13:01:10.125Z,99.90
2023-05-12T13:03:43.109Z,99.90
2023-05-12T13:06:10.492Z,99.90
2023-05-12T13:08:37.585Z,99.90
2023-05-12T13:11:04.927Z,99.90
2023-05-12T13:13:39.747Z,99.90
2023-05-12T13:16:07.208Z,99.90
2023-05-12T13:18:34.114Z,99.90
2023-05-12T13:21:02.771Z,99.90
2023-05-12T13:23:33.215Z,99.90
2023-05-12T13:26:00.271Z,99.90
2023-05-12T13:28:30.413Z,99.90
2023-05-12T13:31:02.707Z,99.90
2023-05-12T13:33:30.311Z,99.90
2023-05-12T13:35:57.477Z,99.90
2023-05-12T13:38:24.561Z,99.90
2023-05-12T13:40:51.576Z,99.90
2023-05-12T13:43:21.619Z,99.90
2023-05-12T13:45:49.414Z,99.90
2023-05-12T13:48:16.378Z,99.90
2023-05-12T13:50:43.749Z,99.90
2023-05-12T13:53:20.987Z,99.90
2023-05-12T13:55:48.624Z,99.90
2023-05-12T13:58:19.482Z,99.90
2023-05-12T14:00:48.069Z,99.90
2023-05-12T14:03:15.516Z,99.90
2023-05-12T14:05:42.457Z,99.90
2023-05-12T14:08:09.672Z,99.90
2023-05-12T14:10:36.919Z,99.90
2023-05-12T14:13:04.084Z,99.90
2023-05-12T14:15:47.358Z,99.90
2023-05-12T14:18:16.253Z,99.90
2023-05-12T14:20:43.455Z,99.90
2023-05-12T14:23:10.446Z,99.90
2023-05-12T14:25:37.593Z,99.90
2023-05-12T14:28:04.830Z,99.90
2023-05-12T14:30:34.996Z,99.90
2023-05-12T14:36:52.739Z,99.90
2023-05-12T14:39:23.703Z,99.90
2023-05-12T14:41:54.082Z,99.90
2023-05-12T14:48:03.493Z,99.90
2023-05-12T15:03:39.863Z,99.90
2023-05-12T15:06:07.815Z,99.90
2023-05-12T15:20:52.796Z,99.90
2023-05-12T15:35:45.666Z,98.30
2023-05-12T15:55:02.153Z,91.90
2023-05-12T16:02:19.632Z,90.50
2023-05-12T16:04:47.792Z,91.50
2023-05-12T16:07:20.058Z,90.60
2023-05-12T16:09:49.958Z,90.10
2023-05-12T16:12:27.835Z,89.80
2023-05-12T16:34:53.343Z,92.30
2023-05-12T16:59:21.506Z,94.60
2023-05-12T17:01:48.275Z,96.40
2023-05-12T17:04:15.595Z,95.90
2023-05-12T17:06:44.710Z,96.50
2023-05-12T17:09:11.580Z,97.40
2023-05-12T17:11:38.347Z,98.50
2023-05-12T17:14:05.144Z,98.50
2023-05-12T17:16:36.947Z,99.80
2023-05-12T17:19:14.089Z,99.70
2023-05-12T17:21:44.485Z,99.90
2023-05-12T17:24:14.400Z,99.90
2023-05-12T17:26:41.255Z,99.90
2023-05-12T17:29:08.101Z,99.90
2023-05-12T17:31:34.989Z,99.90
2023-05-12T17:34:09.408Z,99.90
2023-05-12T17:36:36.632Z,99.90
2023-05-12T17:39:09.390Z,99.90
2023-05-12T17:41:38.109Z,99.90
2023-05-12T17:44:05.066Z,99.90
2023-05-12T17:46:31.893Z,99.90
2023-05-12T17:48:58.701Z,99.90
2023-05-12T17:51:25.591Z,99.90
2023-05-12T17:53:52.810Z,99.90
2023-05-12T17:56:19.669Z,99.90
2023-05-12T17:58:47.173Z,99.90
2023-05-12T18:01:14.096Z,99.90
2023-05-12T18:03:41.079Z,99.90
2023-05-12T18:06:12.709Z,99.90
2023-05-12T18:08:40.007Z,99.90
2023-05-12T18:11:06.843Z,99.90
2023-05-12T18:13:33.572Z,99.90
2023-05-12T18:16:00.364Z,99.90
2023-05-12T18:18:27.180Z,99.90
2023-05-12T18:20:54.135Z,99.90
2023-05-12T18:23:20.843Z,99.90
2023-05-12T18:25:49.140Z,99.90
2023-05-12T18:28:18.536Z,99.90
2023-05-12T18:30:45.339Z,99.90
2023-05-12T18:33:12.530Z,99.90
2023-05-12T18:35:39.395Z,99.90
2023-05-12T18:44:31.928Z,99.90
2023-05-12T18:46:58.840Z,99.90
2023-05-12T18:49:25.653Z,99.90
2023-05-12T18:51:52.480Z,99.90
2023-05-12T18:54:23.565Z,99.90
2023-05-12T18:56:53.035Z,99.90
2023-05-12T18:59:23.620Z,99.90
2023-05-12T19:01:50.698Z,99.90
2023-05-12T19:04:19.436Z,99.90
2023-05-12T19:06:46.604Z,99.90
2023-05-12T19:09:13.500Z,99.90
2023-05-12T19:11:44.500Z,99.90
2023-05-12T19:14:11.999Z,99.90
2023-05-12T19:16:39.790Z,99.90
2023-05-12T19:19:06.886Z,99.90
2023-05-12T19:21:33.819Z,99.90
2023-05-12T19:24:01.337Z,99.90
2023-05-12T19:26:28.218Z,99.90
2023-05-12T19:28:55.068Z,99.90
2023-05-12T19:31:21.917Z,99.90
2023-05-12T19:33:48.734Z,99.90
2023-05-12T19:36:15.484Z,99.90
2023-05-12T19:38:44.164Z,99.90
2023-05-12T19:41:11.258Z,99.90
2023-05-12T19:43:38.054Z,99.90
2023-05-12T19:46:05.053Z,99.90
2023-05-12T19:48:36.034Z,99.90
2023-05-12T19:51:05.811Z,99.90
2023-05-12T19:53:32.713Z,99.90
2023-05-12T19:56:00.230Z,99.90
2023-05-12T19:58:27.052Z,99.90
2023-05-12T20:00:55.428Z,99.90
2023-05-12T20:03:22.706Z,99.90
2023-05-12T20:05:49.826Z,99.90
2023-05-12T20:08:16.595Z,99.90
2023-05-12T20:10:43.423Z,99.90
2023-05-12T20:13:10.370Z,99.90
2023-05-12T20:15:39.949Z,99.90
2023-05-12T20:18:06.885Z,99.90
2023-05-12T20:20:33.839Z,99.90
2023-05-12T20:23:00.694Z,99.90
2023-05-12T20:25:31.055Z,99.90
2023-05-12T20:28:02.115Z,99.90
2023-05-12T20:30:28.972Z,99.90
2023-05-12T20:32:55.887Z,99.90
2023-05-12T20:35:23.137Z,99.90
2023-05-12T20:37:55.415Z,99.90
2023-05-12T20:40:22.642Z,99.90
2023-05-12T20:42:49.627Z,99.90
2023-05-12T20:45:16.485Z,99.90
2023-05-12T20:47:55.217Z,99.90
2023-05-12T20:50:23.714Z,99.90
2023-05-12T20:52:50.809Z,99.90
2023-05-12T20:55:17.833Z,99.90
2023-05-12T20:57:44.904Z,99.90
2023-05-12T21:00:13.499Z,99.90
2023-05-12T21:02:40.787Z,99.90
2023-05-12T21:05:08.037Z,99.90
2023-05-12T21:07:35.054Z,99.90
2023-05-12T21:10:03.598Z,99.90
2023-05-12T21:12:31.379Z,99.90
2023-05-12T21:14:58.562Z,99.90
2023-05-12T21:17:25.427Z,99.90
2023-05-12T21:19:52.234Z,99.90
2023-05-12T21:22:19.146Z,99.90
2023-05-12T21:24:45.929Z,99.90
2023-05-12T21:27:12.763Z,99.90
2023-05-12T21:29:39.547Z,99.90
2023-05-12T21:32:06.772Z,99.90
2023-05-12T21:34:35.856Z,99.90
2023-05-12T21:37:03.055Z,99.90
2023-05-12T21:39:30.108Z,99.90
2023-05-12T21:41:56.875Z,99.90
2023-05-12T21:44:23.604Z,99.90
2023-05-12T21:46:50.362Z,99.90
2023-05-12T21:49:17.435Z,99.90
2023-05-12T21:51:44.404Z,99.90
2023-05-12T21:54:12.413Z,99.90
2023-05-12T21:56:39.401Z,99.90
2023-05-12T21:59:06.439Z,99.90
2023-05-12T22:01:33.423Z,99.90
2023-05-12T22:04:00.376Z,99.90
2023-05-12T22:06:27.364Z,99.90
2023-05-12T22:08:54.292Z,99.90
2023-05-12T22:11:21.714Z,99.90
2023-05-12T22:13:49.119Z,99.90
2023-05-12T22:16:16.532Z,99.90
2023-05-12T22:18:43.635Z,99.90
2023-05-12T22:21:11.124Z,99.90
2023-05-12T22:23:38.598Z,99.90
2023-05-12T22:26:05.631Z,99.90
2023-05-12T22:28:32.322Z,99.90
2023-05-12T22:30:59.086Z,99.90
2023-05-12T22:33:26.034Z,99.90
2023-05-12T22:35:52.748Z,99.90
2023-05-12T22:38:19.561Z,99.90
2023-05-12T22:40:46.761Z,99.90
2023-05-12T22:43:13.809Z,99.90
2023-05-12T22:45:40.777Z,99.90
2023-05-12T23:13:24.524Z,99.90
2023-05-12T23:15:51.284Z,99.90
2023-05-12T23:18:19.454Z,99.90
2023-05-12T23:20:46.363Z,99.90
2023-05-12T23:23:13.328Z,99.90
2023-05-12T23:25:41.896Z,99.90
2023-05-12T23:28:08.777Z,99.90
2023-05-12T23:30:35.447Z,99.90
2023-05-12T23:33:02.257Z,99.90
2023-05-12T23:35:29.168Z,99.90
2023-05-12T23:37:56.142Z,99.90
2023-05-12T23:40:23.360Z,99.90
2023-05-12T23:42:50.173Z,99.90
2023-05-12T23:45:17.062Z,99.90
2023-05-12T23:47:43.882Z,99.90
2023-05-12T23:50:10.949Z,99.90
2023-05-12T23:52:37.924Z,99.90
2023-05-12T23:55:05.121Z,99.90
2023-05-12T23:57:32.052Z,99.90
2023-05-12T23:59:59.086Z,99.90
